Time;durP1;ratioP1;P1;durP2;ratioP2;P2;SDS_P1;SDS_P2;PMS_P1;PMS_P2;Temp;Humidity;BMP_temperature;BMP_pressure;BME280_temperature;BME280_humidity;BME280_pressure;Samples;Min_cycle;Max_cycle;Signal;HPM_P1;HPM_P2
2023/09/05 00:01:53;;;;;;;4.40;2.60;;;;;;;16.35;94.81;101682.62;105181;1256;73424;-62
2023/09/05 00:04:20;;;;;;;3.40;2.70;;;;;;;16.35;94.86;101678.73;105166;1257;69174;-62
2023/09/05 00:06:47;;;;;;;3.10;2.20;;;;;;;16.36;94.92;101675.17;105163;1261;69093;-62
2023/09/05 00:09:18;;;;;;;3.80;2.50;;;;;;;16.35;94.84;101670.48;105180;1256;75509;-62
2023/09/05 00:11:46;;;;;;;5.30;2.80;;;;;;;16.34;94.81;101666.10;105211;1257;83591;-62
2023/09/05 00:14:15;;;;;;;6.00;2.70;;;;;;;16.35;94.89;101665.88;105180;1257;72651;-62
2023/09/05 00:16:42;;;;;;;5.90;2.80;;;;;;;16.34;94.87;101665.19;105193;1256;69179;-62
2023/09/05 00:19:10;;;;;;;4.50;2.50;;;;;;;16.34;94.82;101665.72;105147;1262;69182;-62
2023/09/05 00:21:36;;;;;;;3.90;2.70;;;;;;;16.32;94.61;101665.64;105206;1261;75610;-62
2023/09/05 00:24:39;;;;;;;4.40;2.60;;;;;;;16.27;94.38;101662.64;105099;1261;82443;-62
2023/09/05 00:27:09;;;;;;;4.60;2.60;;;;;;;16.21;94.16;101669.59;105168;1260;73686;-62
2023/09/05 00:29:37;;;;;;;3.40;2.60;;;;;;;16.14;93.84;101671.31;105201;1261;69305;-62
2023/09/05 00:32:04;;;;;;;4.20;2.90;;;;;;;16.09;94.21;101679.98;105191;1260;69113;-62
2023/09/05 00:34:37;;;;;;;4.70;2.80;;;;;;;16.07;94.65;101680.91;105101;1257;75619;-62
2023/09/05 00:37:08;;;;;;;6.90;3.40;;;;;;;16.05;94.63;101679.75;105229;1261;83529;-62
2023/09/05 00:39:40;;;;;;;4.10;2.80;;;;;;;16.00;94.50;101674.34;105112;1256;73620;-62
2023/09/05 00:42:10;;;;;;;3.50;2.60;;;;;;;15.93;94.48;101677.40;105171;1256;69076;-62
2023/09/05 00:44:37;;;;;;;4.20;2.70;;;;;;;15.90;94.59;101677.02;105172;1260;69194;-62
2023/09/05 00:47:05;;;;;;;5.00;3.00;;;;;;;15.86;94.50;101679.64;105200;1257;74664;-62
2023/09/05 00:49:39;;;;;;;3.00;2.40;;;;;;;15.79;94.34;101676.55;105200;1257;83483;-62
2023/09/05 00:52:08;;;;;;;5.10;2.90;;;;;;;15.72;94.32;101675.77;105138;1257;72872;-62
2023/09/05 00:54:36;;;;;;;4.40;2.60;;;;;;;15.67;94.39;101673.46;105183;1260;69154;-62
2023/09/05 00:57:03;;;;;;;4.00;2.80;;;;;;;15.61;94.35;101676.48;105299;1260;69142;-62
2023/09/05 00:59:31;;;;;;;5.40;2.50;;;;;;;15.57;94.33;101673.30;105177;1257;76127;-62
2023/09/05 01:01:58;;;;;;;3.20;2.80;;;;;;;15.52;94.30;101671.73;105111;1262;83444;-62
2023/09/05 01:04:25;;;;;;;5.40;2.90;;;;;;;15.46;94.29;101672.48;105218;1256;73674;-62
2023/09/05 01:07:11;;;;;;;4.00;2.80;;;;;;;15.39;94.28;101667.61;105142;1256;69097;-62
2023/09/05 01:09:42;;;;;;;4.20;2.70;;;;;;;15.34;94.59;101667.63;105181;1262;69171;-62
2023/09/05 01:12:09;;;;;;;5.30;2.80;;;;;;;15.29;94.56;101659.55;105132;1260;75547;-62
2023/09/05 01:14:36;;;;;;;4.00;3.00;;;;;;;15.23;94.43;101657.29;105130;1257;81315;-62
2023/09/05 01:17:05;;;;;;;4.40;2.60;;;;;;;15.20;94.79;101657.76;105125;1261;72555;-62
2023/09/05 01:19:37;;;;;;;7.40;3.00;;;;;;;15.15;94.63;101656.00;105182;1261;69109;-62
2023/09/05 01:22:16;;;;;;;5.50;2.60;;;;;;;15.08;94.43;101653.95;105145;1256;69143;-62
2023/09/05 01:24:47;;;;;;;4.50;2.70;;;;;;;15.01;94.32;101654.37;105241;1256;75842;-62
2023/09/05 01:27:17;;;;;;;;;;;;;;;14.95;94.33;101647.73;105120;1257;83005;-62
2023/09/05 01:29:46;;;;;;;3.80;2.30;;;;;;;14.86;94.32;101650.83;105160;1256;72630;-62
2023/09/05 01:32:14;;;;;;;3.50;2.50;;;;;;;14.81;94.46;101654.72;105194;1260;69147;-62
2023/09/05 01:34:41;;;;;;;5.30;2.80;;;;;;;14.77;94.60;101653.11;105167;1261;69195;-62
2023/09/05 01:37:14;;;;;;;3.60;2.70;;;;;;;14.74;94.73;101654.95;105206;1256;75428;-62
2023/09/05 01:39:42;;;;;;;3.40;2.60;;;;;;;14.69;94.46;101655.67;105177;1262;83325;-62
2023/09/05 01:42:09;;;;;;;4.10;2.90;;;;;;;14.62;94.55;101650.29;105195;1260;72635;-62
2023/09/05 01:44:38;;;;;;;4.20;2.80;;;;;;;14.58;94.47;101650.61;105122;1262;69390;-62
2023/09/05 01:47:05;;;;;;;3.20;2.80;;;;;;;14.51;94.50;101651.50;105324;1257;69113;-61
2023/09/05 01:49:32;;;;;;;4.20;2.50;;;;;;;14.46;94.43;101654.83;105199;1257;75418;-62
2023/09/05 01:52:00;;;;;;;5.10;3.20;;;;;;;14.41;94.60;101656.92;105244;1260;83208;-62
2023/09/05 01:54:28;;;;;;;5.00;3.00;;;;;;;14.37;94.77;101656.55;105163;1257;73723;-62
2023/09/05 01:56:55;;;;;;;3.30;2.70;;;;;;;14.32;94.74;101659.49;105169;1256;69126;-62
2023/09/05 01:59:22;;;;;;;5.10;2.30;;;;;;;14.28;94.77;101661.73;105199;1256;69139;-62
2023/09/05 02:01:49;;;;;;;4.10;2.80;;;;;;;14.23;94.70;101662.79;105107;1257;75519;-62
2023/09/05 02:04:16;;;;;;;3.80;2.70;;;;;;;14.20;94.83;101661.83;105173;1256;83721;-62
2023/09/05 02:06:43;;;;;;;5.30;3.30;;;;;;;14.17;94.89;101663.16;105147;1256;73643;-62
2023/09/05 02:09:10;;;;;;;3.60;2.80;;;;;;;14.15;95.03;101664.45;105204;1262;69125;-62
2023/09/05 02:11:37;;;;;;;5.10;2.80;;;;;;;14.11;95.05;101663.00;105142;1256;69197;-62
2023/09/05 02:14:05;;;;;;;3.80;2.60;;;;;;;14.06;94.87;101663.52;105067;1256;74569;-62
2023/09/05 02:16:33;;;;;;;4.30;2.80;;;;;;;13.99;94.80;101663.02;105163;1260;82423;-62
2023/09/05 02:19:00;;;;;;;4.90;2.70;;;;;;;13.94;94.73;101663.35;105071;1261;73906;-62
2023/09/05 02:21:27;;;;;;;4.30;3.20;;;;;;;13.90;94.91;101659.96;105210;1262;69145;-62
2023/09/05 02:23:54;;;;;;;3.40;2.60;;;;;;;13.87;94.93;101656.20;105165;1262;69113;-62
2023/09/05 02:26:21;;;;;;;3.80;2.60;;;;;;;13.83;95.04;101655.60;105148;1256;75856;-62
2023/09/05 02:28:47;;;;;;;5.30;3.10;;;;;;;13.78;95.05;101655.39;105095;1262;83339;-62
2023/09/05 02:31:14;;;;;;;6.10;3.20;;;;;;;13.74;95.06;101651.47;105044;1258;72546;-62
2023/09/05 02:33:42;;;;;;;3.80;2.80;;;;;;;13.72;95.35;101650.52;105168;1259;69199;-62
2023/09/05 02:36:15;;;;;;;4.40;2.80;;;;;;;13.72;95.61;101651.04;105262;1260;69132;-62
2023/09/05 02:38:42;;;;;;;3.30;2.60;;;;;;;13.70;95.45;101653.02;105208;1256;75712;-62
2023/09/05 02:41:14;;;;;;;3.40;2.60;;;;;;;13.66;95.31;101653.64;105103;1261;83221;-62
2023/09/05 02:43:41;;;;;;;3.80;2.90;;;;;;;13.61;95.45;101653.61;105214;1256;73693;-62
2023/09/05 02:46:09;;;;;;;4.00;3.20;;;;;;;13.61;95.88;101651.16;105242;1258;69177;-62
2023/09/05 02:48:38;;;;;;;7.90;2.90;;;;;;;13.65;96.62;101650.89;105053;1261;70263;-62
2023/09/05 02:51:08;;;;;;;4.70;3.10;;;;;;;13.64;96.05;101652.13;105222;1257;74707;-62
2023/09/05 02:53:35;;;;;;;4.70;3.00;;;;;;;13.58;95.89;101647.73;105185;1256;83432;-62
2023/09/05 02:56:02;;;;;;;4.50;2.90;;;;;;;13.53;95.51;101648.42;105156;1257;73673;-62
2023/09/05 02:58:30;;;;;;;3.90;2.30;;;;;;;13.48;95.74;101647.35;105200;1261;69189;-62
2023/09/05 03:01:02;;;;;;;3.80;2.70;;;;;;;13.45;95.75;101649.90;105202;1256;69185;-61
2023/09/05 03:03:30;;;;;;;3.60;2.70;;;;;;;13.41;95.69;101647.17;105199;1256;75719;-62
2023/09/05 03:06:09;;;;;;;5.60;3.30;;;;;;;13.39;95.87;101646.02;105106;1256;83304;-62
2023/09/05 03:08:37;;;;;;;4.40;3.20;;;;;;;13.34;95.81;101646.15;105144;1260;72679;-62
2023/09/05 03:11:04;;;;;;;4.00;3.20;;;;;;;13.32;95.93;101647.64;105222;1257;69169;-62
2023/09/05 03:13:31;;;;;;;4.40;2.90;;;;;;;13.29;95.94;101651.21;105048;1256;69110;-63
2023/09/05 03:15:58;;;;;;;3.10;2.80;;;;;;;13.26;95.98;101645.69;105212;1260;75613;-62
2023/09/05 03:18:25;;;;;;;3.20;2.80;;;;;;;13.21;95.84;101641.39;105190;1260;83476;-62
2023/09/05 03:20:53;;;;;;;5.40;2.90;;;;;;;13.18;96.04;101645.17;105193;1256;72654;-62
2023/09/05 03:23:20;;;;;;;3.40;2.80;;;;;;;13.15;96.10;101639.44;105225;1257;69185;-62
2023/09/05 03:25:47;;;;;;;4.10;2.80;;;;;;;13.14;95.99;101641.25;105206;1257;69065;-62
2023/09/05 03:28:14;;;;;;;3.00;2.60;;;;;;;13.11;96.09;101642.56;105109;1261;75537;-62
2023/09/05 03:30:44;;;;;;;4.10;3.20;;;;;;;13.12;96.64;101639.35;105222;1260;83727;-62
2023/09/05 03:33:11;;;;;;;5.30;3.30;;;;;;;13.14;96.86;101636.52;105197;1257;73690;-62
2023/09/05 03:35:38;;;;;;;4.20;3.00;;;;;;;13.13;96.64;101630.38;105157;1257;69533;-62
2023/09/05 03:38:06;;;;;;;3.60;3.10;;;;;;;13.11;96.63;101626.05;105204;1260;69190;-62
2023/09/05 03:40:36;;;;;;;7.70;3.50;;;;;;;13.10;96.79;101625.56;105203;1257;76012;-62
2023/09/05 03:43:03;;;;;;;4.50;3.20;;;;;;;13.10;96.96;101623.44;105226;1261;82284;-62
2023/09/05 03:45:30;;;;;;;3.70;2.90;;;;;;;13.08;96.75;101620.37;105138;1262;73613;-62
2023/09/05 03:47:57;;;;;;;7.00;3.20;;;;;;;13.06;96.66;101616.20;105148;1256;69095;-62
2023/09/05 03:50:29;;;;;;;5.60;3.30;;;;;;;13.01;96.44;101612.64;105216;1262;69078;-62
2023/09/05 03:52:57;;;;;;;6.50;3.30;;;;;;;12.99;96.46;101616.21;105210;1262;75642;-62
2023/09/05 03:55:24;;;;;;;3.40;2.90;;;;;;;12.97;96.75;101618.21;105183;1256;83492;-62
2023/09/05 03:57:51;;;;;;;6.30;2.90;;;;;;;12.94;96.50;101620.72;105153;1257;72540;-62
2023/09/05 04:00:19;;;;;;;5.60;3.20;;;;;;;12.93;96.65;101623.75;105185;1256;69078;-62
2023/09/05 04:02:46;;;;;;;6.40;3.30;;;;;;;12.93;96.83;101624.09;105244;1262;69185;-62
2023/09/05 04:05:18;;;;;;;4.80;3.40;;;;;;;12.92;96.73;101624.48;105196;1262;75628;-62
2023/09/05 04:07:45;;;;;;;4.80;3.40;;;;;;;12.90;96.64;101625.41;105210;1260;83361;-61
2023/09/05 04:10:12;;;;;;;4.60;3.10;;;;;;;12.87;96.69;101626.73;105167;1256;72665;-62
2023/09/05 04:12:39;;;;;;;5.10;3.40;;;;;;;12.84;96.62;101626.98;105189;1262;69129;-62
2023/09/05 04:15:07;;;;;;;6.60;3.80;;;;;;;12.81;96.75;101628.46;105267;1256;69202;-62
2023/09/05 04:17:34;;;;;;;6.10;3.40;;;;;;;12.81;96.83;101628.81;105211;1261;75829;-62
2023/09/05 04:20:07;;;;;;;4.00;3.50;;;;;;;12.80;96.88;101630.43;105211;1260;82629;-62
2023/09/05 04:22:35;;;;;;;4.60;3.40;;;;;;;12.78;96.82;101635.02;105187;1264;72654;-62
2023/09/05 04:25:03;;;;;;;6.30;3.70;;;;;;;12.77;96.93;101636.48;105232;1260;69125;-61
2023/09/05 04:27:30;;;;;;;4.40;3.50;;;;;;;12.77;97.07;101641.20;105169;1262;69151;-62
2023/09/05 04:29:57;;;;;;;5.60;3.50;;;;;;;12.75;97.05;101647.74;105122;1257;75629;-62
2023/09/05 04:32:28;;;;;;;4.60;3.50;;;;;;;12.72;97.08;101646.05;105157;1257;82514;-62
2023/09/05 04:34:57;;;;;;;7.20;3.90;;;;;;;12.72;97.19;101647.63;105163;1257;73769;-62
2023/09/05 04:37:24;;;;;;;6.10;3.70;;;;;;;12.74;97.39;101643.55;105087;1262;69129;-62
2023/09/05 04:39:52;;;;;;;4.10;3.50;;;;;;;12.76;97.61;101644.39;105196;1262;69825;-62
2023/09/05 04:42:20;;;;;;;7.10;3.80;;;;;;;12.76;97.63;101650.18;105204;1261;75402;-62
2023/09/05 04:44:47;;;;;;;5.50;3.60;;;;;;;12.77;97.83;101656.11;105182;1257;83305;-62
2023/09/05 04:47:19;;;;;;;5.70;3.70;;;;;;;12.79;97.83;101655.54;105196;1260;73779;-62
2023/09/05 04:49:49;;;;;;;5.00;3.70;;;;;;;12.80;97.76;101657.79;105159;1260;69237;-62
2023/09/05 04:52:18;;;;;;;4.80;3.80;;;;;;;12.81;97.90;101654.25;105333;1260;69119;-62
2023/09/05 04:54:48;;;;;;;7.20;4.90;;;;;;;12.85;98.30;101658.88;105251;1262;75570;-63
2023/09/05 04:57:16;;;;;;;9.70;5.40;;;;;;;12.92;99.22;101656.94;105339;1260;83266;-62
2023/09/05 04:59:45;;;;;;;6.80;5.40;;;;;;;13.04;99.81;101657.14;105228;1257;73598;-63
2023/09/05 05:02:12;;;;;;;8.00;5.70;;;;;;;13.13;99.93;101660.05;105171;1256;69200;-62
2023/09/05 05:04:40;;;;;;;8.70;5.60;;;;;;;13.22;100.00;101663.67;105230;1260;69192;-62
2023/09/05 05:07:08;;;;;;;5.20;4.20;;;;;;;13.30;100.00;101665.59;105263;1257;75875;-62
2023/09/05 05:09:35;;;;;;;6.60;4.90;;;;;;;13.33;99.97;101664.63;105200;1257;83137;-62
2023/09/05 05:12:03;;;;;;;8.30;5.40;;;;;;;13.39;100.00;101670.07;105188;1256;71655;-62
2023/09/05 05:14:30;;;;;;;8.30;6.00;;;;;;;13.47;100.00;101672.83;105185;1260;69132;-62
2023/09/05 05:16:56;;;;;;;5.30;4.80;;;;;;;13.57;100.00;101665.34;105173;1260;69071;-62
2023/09/05 05:19:24;;;;;;;8.20;5.40;;;;;;;13.66;100.00;101663.34;105214;1257;75728;-62
2023/09/05 05:21:52;;;;;;;8.20;6.40;;;;;;;13.74;100.00;101670.45;105224;1256;83305;-63
2023/09/05 05:24:19;;;;;;;9.30;6.10;;;;;;;13.83;100.00;101672.10;105211;1260;73617;-62
2023/09/05 05:26:46;;;;;;;8.00;5.90;;;;;;;13.92;100.00;101669.73;105191;1260;69177;-63
2023/09/05 05:29:13;;;;;;;8.80;5.70;;;;;;;14.02;100.00;101666.95;105283;1257;69160;-62
2023/09/05 05:31:40;;;;;;;8.00;6.10;;;;;;;14.12;100.00;101667.70;105244;1260;75899;-62
2023/09/05 05:34:07;;;;;;;10.00;6.70;;;;;;;14.21;100.00;101667.95;105220;1260;83251;-62
2023/09/05 05:36:35;;;;;;;7.80;6.30;;;;;;;14.30;100.00;101665.90;105198;1262;72665;-63
2023/09/05 05:39:02;;;;;;;11.60;6.50;;;;;;;14.37;100.00;101662.70;105163;1263;69211;-62
2023/09/05 05:41:29;;;;;;;9.10;6.60;;;;;;;14.45;100.00;101663.47;105214;1261;69202;-62
2023/09/05 05:43:57;;;;;;;12.00;6.80;;;;;;;14.54;100.00;101663.38;105096;1262;75882;-63
2023/09/05 05:46:24;;;;;;;8.50;6.50;;;;;;;14.62;100.00;101667.33;105160;1261;83519;-62
2023/09/05 05:48:51;;;;;;;9.70;6.70;;;;;;;14.71;100.00;101669.50;105093;1257;73401;-62
2023/09/05 05:51:18;;;;;;;8.70;6.10;;;;;;;14.79;100.00;101673.44;105194;1263;69146;-62
2023/09/05 05:53:48;;;;;;;10.10;6.50;;;;;;;14.88;100.00;101674.38;105193;1262;69122;-63
2023/09/05 05:56:15;;;;;;;9.50;6.30;;;;;;;14.96;100.00;101677.60;105228;1262;75588;-62
2023/09/05 05:58:42;;;;;;;7.10;6.40;;;;;;;15.05;100.00;101673.43;105138;1260;83327;-63
2023/09/05 06:01:08;;;;;;;7.30;6.30;;;;;;;15.13;100.00;101668.73;105110;1256;72582;-63
2023/09/05 06:03:35;;;;;;;9.10;6.50;;;;;;;15.22;100.00;101669.12;105198;1257;69272;-63
2023/09/05 06:06:06;;;;;;;8.40;6.80;;;;;;;15.29;100.00;101664.98;105184;1260;69208;-62
2023/09/05 06:08:33;;;;;;;7.80;6.80;;;;;;;15.38;100.00;101664.98;105268;1257;76906;-63
2023/09/05 06:11:00;;;;;;;9.00;6.50;;;;;;;15.46;100.00;101664.20;105174;1261;83341;-62
2023/09/05 06:13:27;;;;;;;10.00;6.50;;;;;;;15.53;100.00;101664.65;105191;1260;72768;-63
2023/09/05 06:15:53;;;;;;;8.40;6.30;;;;;;;15.59;100.00;101661.59;105142;1260;69205;-63
2023/09/05 06:18:21;;;;;;;7.70;6.40;;;;;;;15.65;100.00;101662.77;105109;1261;69145;-63
2023/09/05 06:20:47;;;;;;;8.40;6.00;;;;;;;15.73;100.00;101666.73;105155;1257;75674;-63
2023/09/05 06:23:14;;;;;;;8.40;6.10;;;;;;;15.81;100.00;101669.77;105142;1262;83378;-62
2023/09/05 06:25:41;;;;;;;8.10;5.70;;;;;;;15.90;100.00;101671.35;105315;1260;72634;-62
2023/09/05 06:28:08;;;;;;;7.80;5.50;;;;;;;15.99;100.00;101671.17;105162;1258;69159;-63
2023/09/05 06:30:35;;;;;;;7.60;5.80;;;;;;;16.08;100.00;101664.30;105387;1270;69183;-63
2023/09/05 06:33:03;;;;;;;8.80;5.40;;;;;;;16.18;100.00;101663.20;105149;1270;74592;-63
2023/09/05 06:35:30;;;;;;;8.50;5.30;;;;;;;16.27;100.00;101664.06;105157;1261;82350;-63
2023/09/05 06:37:57;;;;;;;7.40;4.70;;;;;;;16.37;100.00;101662.27;105151;1261;73894;-63
2023/09/05 06:40:25;;;;;;;7.70;5.20;;;;;;;16.45;100.00;101657.83;105194;1261;69147;-63
2023/09/05 06:42:52;;;;;;;8.90;5.20;;;;;;;16.55;100.00;101653.23;105159;1262;69201;-63
2023/09/05 06:45:20;;;;;;;4.70;4.20;;;;;;;16.62;100.00;101649.88;105106;1261;74580;-63
2023/09/05 06:47:47;;;;;;;8.30;4.70;;;;;;;16.71;100.00;101647.39;105145;1261;83211;-62
2023/09/05 06:50:15;;;;;;;6.20;4.90;;;;;;;16.81;100.00;101649.13;105177;1260;73667;-63
2023/09/05 06:52:42;;;;;;;8.10;4.70;;;;;;;16.89;100.00;101644.90;105196;1261;69237;-63
2023/09/05 06:55:12;;;;;;;7.20;4.50;;;;;;;16.98;100.00;101644.87;105153;1261;69154;-63
2023/09/05 06:57:39;;;;;;;6.80;4.40;;;;;;;17.09;100.00;101645.46;105147;1257;75651;-62
2023/09/05 07:00:06;;;;;;;6.20;4.20;;;;;;;17.18;100.00;101648.02;105169;1260;83312;-63
2023/09/05 07:02:33;;;;;;;5.00;4.20;;;;;;;17.28;99.83;101650.45;105279;1260;73710;-63
2023/09/05 07:05:01;;;;;;;6.90;4.40;;;;;;;17.35;99.00;101656.29;105105;1268;69284;-63
2023/09/05 07:07:29;;;;;;;6.60;4.50;;;;;;;17.42;98.77;101656.33;105222;1260;69202;-63
2023/09/05 07:09:56;;;;;;;7.20;4.70;;;;;;;17.50;98.56;101654.55;105191;1261;75131;-63
2023/09/05 07:12:22;;;;;;;7.70;4.40;;;;;;;17.56;98.18;101648.43;105178;1263;81604;-63
2023/09/05 07:14:49;;;;;;;7.30;4.20;;;;;;;17.66;98.22;101649.21;105125;1261;72664;-63
2023/09/05 07:17:16;;;;;;;4.90;3.60;;;;;;;17.74;97.62;101647.06;105121;1257;69088;-63
2023/09/05 07:19:43;;;;;;;7.40;4.20;;;;;;;17.82;97.48;101651.85;105170;1270;69755;-63
2023/09/05 07:22:10;;;;;;;8.10;4.20;;;;;;;17.90;97.13;101650.40;105183;1257;74593;-63
2023/09/05 07:24:37;;;;;;;5.80;3.60;;;;;;;17.97;96.82;101652.00;105170;1264;83096;-63
2023/09/05 07:27:05;;;;;;;6.70;3.90;;;;;;;18.07;96.41;101654.68;105156;1260;73733;-63
2023/09/05 07:29:33;;;;;;;6.30;3.90;;;;;;;18.17;96.13;101662.73;105167;1270;69150;-63
2023/09/05 07:32:01;;;;;;;6.50;3.60;;;;;;;18.25;95.47;101664.64;105206;1267;69240;-63
2023/09/05 07:34:28;;;;;;;5.70;3.40;;;;;;;18.32;95.09;101662.86;105264;1260;75761;-63
2023/09/05 07:36:56;;;;;;;5.30;3.20;;;;;;;18.38;94.95;101662.20;105156;1260;83146;-63
2023/09/05 07:39:24;;;;;;;5.50;3.50;;;;;;;18.48;94.52;101658.71;105198;1260;73402;-63
2023/09/05 07:41:51;;;;;;;6.10;3.10;;;;;;;18.58;94.51;101661.40;105187;1262;69207;-63
2023/09/05 07:44:19;;;;;;;5.00;3.20;;;;;;;18.68;94.31;101669.16;105185;1267;69192;-63
2023/09/05 07:46:46;;;;;;;5.40;3.10;;;;;;;18.77;93.41;101667.02;105222;1261;74756;-63
2023/09/05 07:49:15;;;;;;;8.80;3.60;;;;;;;18.86;93.43;101665.46;105214;1261;83689;-63
2023/09/05 07:51:43;;;;;;;8.20;3.00;;;;;;;18.99;93.20;101661.95;105185;1257;72774;-63
2023/09/05 07:54:10;;;;;;;6.10;3.20;;;;;;;19.10;92.72;101659.29;105174;1260;69158;-63
2023/09/05 07:56:39;;;;;;;5.80;3.10;;;;;;;19.20;91.94;101665.30;105082;1262;230576;-63
2023/09/05 07:59:06;;;;;;;6.10;3.20;;;;;;;19.23;90.70;101671.17;105237;1270;74834;-63
2023/09/05 08:01:33;;;;;;;6.20;3.60;;;;;;;19.28;90.48;101672.67;105288;1265;83684;-63
2023/09/05 08:04:00;;;;;;;4.70;3.20;;;;;;;19.42;90.73;101672.27;105292;1263;72654;-63
2023/09/05 08:06:28;;;;;;;4.70;2.90;;;;;;;19.57;90.54;101665.79;105240;1268;69125;-63
2023/09/05 08:08:56;;;;;;;3.40;2.60;;;;;;;19.71;89.56;101664.67;105194;1261;69173;-63
2023/09/05 08:11:23;;;;;;;6.60;3.00;;;;;;;19.81;89.16;101668.03;105233;1262;74563;-60
2023/09/05 08:13:50;;;;;;;6.10;3.20;;;;;;;19.94;88.95;101667.14;105211;1260;82452;-60
2023/09/05 08:16:19;;;;;;;4.60;2.70;;;;;;;20.09;88.36;101670.04;105232;1262;72690;-60
2023/09/05 08:18:46;;;;;;;9.00;3.30;;;;;;;20.14;86.98;101670.10;105107;1257;70786;-60
2023/09/05 08:21:13;;;;;;;5.60;3.10;;;;;;;20.14;86.22;101670.63;105202;1260;69177;-61
2023/09/05 08:23:39;;;;;;;4.30;3.30;;;;;;;20.17;85.77;101669.38;105189;1260;75885;-60
2023/09/05 08:26:10;;;;;;;4.30;3.20;;;;;;;20.23;85.75;101665.84;105159;1260;83328;-60
2023/09/05 08:28:43;;;;;;;6.80;3.30;;;;;;;20.41;86.08;101662.33;105220;1256;72641;-60
2023/09/05 08:31:10;;;;;;;4.80;3.10;;;;;;;20.58;86.13;101664.58;105193;1267;69330;-60
2023/09/05 08:33:45;;;;;;;8.00;3.40;;;;;;;20.77;86.00;101665.05;105199;1258;69174;-60
2023/09/05 08:36:12;;;;;;;6.30;3.20;;;;;;;20.93;85.31;101669.94;105184;1260;75663;-60
2023/09/05 08:38:39;;;;;;;6.00;3.50;;;;;;;21.02;83.82;101670.28;105176;1260;82285;-61
2023/09/05 08:41:06;;;;;;;4.60;2.70;;;;;;;21.02;82.38;101667.29;105206;1264;73739;-61
2023/09/05 08:43:36;;;;;;;7.00;3.20;;;;;;;21.00;81.80;101668.81;105232;1256;69154;-60
2023/09/05 08:46:04;;;;;;;;;;;;;;;21.13;82.32;101673.31;105128;1260;69697;-60
2023/09/05 08:48:32;;;;;;;5.80;2.90;;;;;;;21.31;81.56;101671.84;105204;1260;75670;-60
2023/09/05 08:51:22;;;;;;;4.60;2.60;;;;;;;21.52;81.42;101667.95;105235;1257;82385;-61
2023/09/05 08:53:56;;;;;;;5.40;2.90;;;;;;;21.65;80.81;101668.71;105167;1260;73930;-60
2023/09/05 08:56:24;;;;;;;6.90;3.00;;;;;;;21.83;80.45;101665.63;105180;1260;69179;-60
2023/09/05 08:58:55;;;;;;;3.90;2.40;;;;;;;21.96;79.45;101669.05;105206;1261;69128;-61
2023/09/05 09:01:24;;;;;;;5.10;2.60;;;;;;;22.04;78.68;101666.40;105153;1257;75531;-61
2023/09/05 09:03:53;;;;;;;5.40;3.00;;;;;;;22.12;77.25;101663.93;105089;1260;83600;-61
2023/09/05 09:06:25;;;;;;;5.20;2.30;;;;;;;22.18;76.73;101661.01;105156;1260;73739;-60
2023/09/05 09:08:53;;;;;;;6.50;2.70;;;;;;;22.34;75.48;101663.04;105164;1259;69176;-61
2023/09/05 09:11:21;;;;;;;5.40;2.40;;;;;;;22.38;74.49;101657.05;105203;1260;69211;-61
2023/09/05 09:13:50;;;;;;;4.10;2.70;;;;;;;22.39;73.51;101657.48;105108;1258;74606;-61
2023/09/05 09:16:18;;;;;;;5.90;3.00;;;;;;;22.42;73.01;101651.45;105164;1260;83397;-62
2023/09/05 09:18:49;;;;;;;7.40;2.80;;;;;;;22.58;73.62;101653.54;105203;1257;73668;-62
2023/09/05 09:21:20;;;;;;;5.30;2.70;;;;;;;22.83;73.03;101657.77;105148;1260;69176;-62
2023/09/05 09:23:50;;;;;;;6.90;2.60;;;;;;;22.94;72.18;101654.15;105150;1260;69148;-62
2023/09/05 09:26:17;;;;;;;5.70;2.60;;;;;;;23.10;71.65;101649.46;105121;1257;74517;-62
2023/09/05 09:28:45;;;;;;;5.50;2.50;;;;;;;23.24;70.90;101647.11;105101;1260;83902;-61
2023/09/05 09:31:12;;;;;;;4.60;2.70;;;;;;;23.36;70.60;101644.59;105293;1260;73726;-62
2023/09/05 09:33:41;;;;;;;3.80;2.80;;;;;;;23.50;69.83;101642.02;105170;1260;69181;-62
2023/09/05 09:36:11;;;;;;;7.30;3.00;;;;;;;23.62;69.36;101636.52;105325;1260;69172;-61
2023/09/05 09:38:39;;;;;;;4.80;2.50;;;;;;;23.75;69.11;101632.73;105243;1257;75986;-62
2023/09/05 09:41:07;;;;;;;5.40;2.10;;;;;;;23.92;68.40;101636.17;105272;1260;83228;-62
2023/09/05 09:43:35;;;;;;;7.30;2.90;;;;;;;24.06;67.47;101637.23;105241;1260;71883;-62
2023/09/05 09:46:04;;;;;;;6.00;2.50;;;;;;;24.10;66.31;101638.16;105219;1260;69292;-62
2023/09/05 09:48:34;;;;;;;6.70;3.00;;;;;;;24.18;66.11;101641.32;105246;1260;69227;-62
2023/09/05 09:51:05;;;;;;;7.60;2.80;;;;;;;24.39;65.51;101635.66;105224;1257;75595;-62
2023/09/05 09:53:42;;;;;;;6.20;2.40;;;;;;;24.53;65.16;101629.23;105172;1260;83356;-62
2023/09/05 09:56:10;;;;;;;4.60;2.80;;;;;;;24.69;64.40;101631.56;105080;1260;73859;-62
2023/09/05 09:58:40;;;;;;;6.70;2.70;;;;;;;24.76;63.31;101630.53;105258;1258;69199;-62
2023/09/05 10:01:12;;;;;;;4.10;2.80;;;;;;;24.90;62.99;101624.23;105206;1258;69080;-62
2023/09/05 10:03:40;;;;;;;6.80;2.80;;;;;;;25.05;62.45;101622.73;105184;1260;75672;-62
2023/09/05 10:06:08;;;;;;;3.70;2.50;;;;;;;25.10;61.60;101625.02;105236;1258;83519;-62
2023/09/05 10:08:37;;;;;;;4.20;2.60;;;;;;;25.25;61.90;101622.91;105159;1260;72778;-62
2023/09/05 10:11:11;;;;;;;4.60;2.70;;;;;;;25.61;61.50;101618.64;105131;1257;69111;-62
2023/09/05 10:13:40;;;;;;;6.70;3.30;;;;;;;25.88;60.80;101623.63;105214;1261;69207;-62
2023/09/05 10:16:08;;;;;;;5.30;3.00;;;;;;;26.12;60.24;101620.18;105228;1260;75659;-62
2023/09/05 10:18:40;;;;;;;5.30;2.80;;;;;;;26.35;59.69;101620.19;105238;1260;83631;-62
2023/09/05 10:21:07;;;;;;;4.40;3.00;;;;;;;26.55;58.81;101621.61;105138;1257;73587;-62
2023/09/05 10:23:35;;;;;;;5.70;2.80;;;;;;;26.79;58.33;101618.80;105083;1260;69121;-62
2023/09/05 10:26:03;;;;;;;5.50;3.00;;;;;;;26.98;57.83;101616.24;105196;1260;69322;-62
2023/09/05 10:28:31;;;;;;;6.90;3.10;;;;;;;27.23;57.52;101609.59;105124;1258;75491;-62
2023/09/05 10:31:06;;;;;;;5.00;3.30;;;;;;;27.55;56.81;101608.17;105213;1260;83349;-62
2023/09/05 10:33:36;;;;;;;5.80;3.20;;;;;;;27.70;55.73;101602.85;105180;1256;72700;-62
2023/09/05 10:36:04;;;;;;;5.40;3.20;;;;;;;27.83;54.95;101599.76;105174;1260;69097;-62
2023/09/05 10:38:36;;;;;;;5.50;3.10;;;;;;;28.00;54.76;101596.20;105212;1261;69234;-62
2023/09/05 10:41:03;;;;;;;4.70;3.00;;;;;;;28.17;54.26;101601.44;105192;1257;75825;-62
2023/09/05 10:43:30;;;;;;;6.10;3.10;;;;;;;28.22;53.28;101594.17;105214;1260;83492;-62
2023/09/05 10:46:01;;;;;;;6.00;2.80;;;;;;;28.31;53.52;101590.84;105106;1261;72739;-62
2023/09/05 10:48:36;;;;;;;5.90;2.80;;;;;;;28.48;52.95;101594.51;105107;1261;69294;-62
2023/09/05 10:51:11;;;;;;;6.00;3.20;;;;;;;28.61;51.58;101591.80;105237;1260;69078;-62
2023/09/05 10:53:40;;;;;;;4.40;2.70;;;;;;;28.67;51.56;101586.20;105217;1260;75946;-62
2023/09/05 10:56:43;;;;;;;4.20;2.90;;;;;;;28.44;51.12;101584.77;105224;1260;83620;-62
2023/09/05 10:59:27;;;;;;;6.60;2.40;;;;;;;28.23;50.77;101579.34;105201;1257;73059;-62
2023/09/05 11:01:56;;;;;;;5.80;2.80;;;;;;;28.34;50.17;101575.64;105265;1258;69178;-62
2023/09/05 11:04:30;;;;;;;5.90;3.20;;;;;;;28.55;50.02;101574.03;105308;1260;69215;-62
2023/09/05 11:06:58;;;;;;;5.90;2.80;;;;;;;28.69;49.68;101573.41;105292;1260;75078;-62
2023/09/05 11:09:25;;;;;;;5.40;2.90;;;;;;;28.79;49.14;101570.13;105169;1260;83137;-62
2023/09/05 11:11:53;;;;;;;5.10;2.90;;;;;;;28.99;48.87;101567.88;105258;1258;72620;-63
2023/09/05 11:14:31;;;;;;;4.00;3.00;;;;;;;29.20;48.01;101564.77;105272;1256;69324;-62
2023/09/05 11:16:58;;;;;;;5.80;3.20;;;;;;;29.21;47.33;101561.79;105262;1256;69037;-62
2023/09/05 11:19:31;;;;;;;4.00;2.90;;;;;;;29.26;47.25;101558.89;105229;1257;77255;-62
2023/09/05 11:22:11;;;;;;;6.60;3.30;;;;;;;29.31;47.07;101559.52;105195;1260;83661;-62
2023/09/05 11:24:46;;;;;;;6.10;2.90;;;;;;;29.37;46.57;101558.09;105175;1260;73060;-62